sensor_id;sensor_type;location;lat;lon;timestamp;P1;durP1;ratioP1;P2;durP2;ratioP2
35257;SDS011;21385;50.878;8.050;2022-07-23T00:01:17;9.23;;;8.35;;
35257;SDS011;21385;50.878;8.050;2022-07-23T00:03:42;8.95;;;7.45;;
35257;SDS011;21385;50.878;8.050;2022-07-23T00:06:08;9.90;;;8.93;;
35257;SDS011;21385;50.878;8.050;2022-07-23T00:08:34;9.70;;;8.77;;
35257;SDS011;21385;50.878;8.050;2022-07-23T00:10:59;8.43;;;7.78;;
35257;SDS011;21385;50.878;8.050;2022-07-23T00:13:26;8.55;;;7.65;;
35257;SDS011;21385;50.878;8.050;2022-07-23T00:15:52;12.05;;;9.30;;
35257;SDS011;21385;50.878;8.050;2022-07-23T00:18:18;10.15;;;9.25;;
35257;SDS011;21385;50.878;8.050;2022-07-23T00:20:44;10.95;;;8.35;;
35257;SDS011;21385;50.878;8.050;2022-07-23T00:23:09;8.32;;;7.63;;
35257;SDS011;21385;50.878;8.050;2022-07-23T00:25:35;9.00;;;7.97;;
35257;SDS011;21385;50.878;8.050;2022-07-23T00:28:01;8.15;;;7.40;;
35257;SDS011;21385;50.878;8.050;2022-07-23T00:30:27;9.05;;;8.35;;
35257;SDS011;21385;50.878;8.050;2022-07-23T00:32:55;11.05;;;8.52;;
35257;SDS011;21385;50.878;8.050;2022-07-23T00:35:23;8.10;;;7.40;;
35257;SDS011;21385;50.878;8.050;2022-07-23T00:37:50;8.85;;;8.05;;
35257;SDS011;21385;50.878;8.050;2022-07-23T00:40:15;9.65;;;8.75;;
35257;SDS011;21385;50.878;8.050;2022-07-23T00:42:41;9.85;;;8.48;;
35257;SDS011;21385;50.878;8.050;2022-07-23T00:45:07;10.10;;;9.13;;
35257;SDS011;21385;50.878;8.050;2022-07-23T00:47:33;9.48;;;8.57;;
35257;SDS011;21385;50.878;8.050;2022-07-23T00:49:59;8.43;;;7.63;;
35257;SDS011;21385;50.878;8.050;2022-07-23T00:52:25;9.30;;;8.50;;
35257;SDS011;21385;50.878;8.050;2022-07-23T00:54:51;10.07;;;9.07;;
35257;SDS011;21385;50.878;8.050;2022-07-23T00:57:17;10.77;;;9.73;;
35257;SDS011;21385;50.878;8.050;2022-07-23T00:59:43;9.80;;;8.80;;
35257;SDS011;21385;50.878;8.050;2022-07-23T01:02:09;10.00;;;9.18;;
35257;SDS011;21385;50.878;8.050;2022-07-23T01:04:35;10.63;;;9.48;;
35257;SDS011;21385;50.878;8.050;2022-07-23T01:07:01;12.13;;;10.18;;
35257;SDS011;21385;50.878;8.050;2022-07-23T01:09:27;12.60;;;9.55;;
35257;SDS011;21385;50.878;8.050;2022-07-23T01:11:54;13.45;;;10.70;;
35257;SDS011;21385;50.878;8.050;2022-07-23T01:14:20;11.48;;;10.38;;
35257;SDS011;21385;50.878;8.050;2022-07-23T01:16:46;10.30;;;9.38;;
35257;SDS011;21385;50.878;8.050;2022-07-23T01:19:14;9.55;;;8.75;;
35257;SDS011;21385;50.878;8.050;2022-07-23T01:21:44;11.38;;;8.88;;
35257;SDS011;21385;50.878;8.050;2022-07-23T01:24:12;13.13;;;10.60;;
35257;SDS011;21385;50.878;8.050;2022-07-23T01:26:40;10.65;;;9.65;;
35257;SDS011;21385;50.878;8.050;2022-07-23T01:29:07;13.20;;;10.02;;
35257;SDS011;21385;50.878;8.050;2022-07-23T01:31:33;11.18;;;10.13;;
35257;SDS011;21385;50.878;8.050;2022-07-23T01:33:58;10.68;;;9.50;;
35257;SDS011;21385;50.878;8.050;2022-07-23T01:36:24;10.50;;;9.48;;
35257;SDS011;21385;50.878;8.050;2022-07-23T01:38:50;13.05;;;9.57;;
35257;SDS011;21385;50.878;8.050;2022-07-23T01:41:16;11.10;;;10.00;;
35257;SDS011;21385;50.878;8.050;2022-07-23T01:43:42;10.05;;;9.15;;
35257;SDS011;21385;50.878;8.050;2022-07-23T01:46:07;9.98;;;9.15;;
35257;SDS011;21385;50.878;8.050;2022-07-23T01:48:33;10.38;;;9.57;;
35257;SDS011;21385;50.878;8.050;2022-07-23T01:50:59;10.70;;;9.70;;
35257;SDS011;21385;50.878;8.050;2022-07-23T01:53:25;10.75;;;9.73;;
35257;SDS011;21385;50.878;8.050;2022-07-23T01:55:50;10.68;;;9.23;;
35257;SDS011;21385;50.878;8.050;2022-07-23T01:58:16;10.23;;;9.15;;
35257;SDS011;21385;50.878;8.050;2022-07-23T02:00:41;11.23;;;10.13;;
35257;SDS011;21385;50.878;8.050;2022-07-23T02:03:07;11.80;;;10.38;;
35257;SDS011;21385;50.878;8.050;2022-07-23T02:05:33;13.27;;;10.98;;
35257;SDS011;21385;50.878;8.050;2022-07-23T02:07:59;10.27;;;9.27;;
35257;SDS011;21385;50.878;8.050;2022-07-23T02:10:25;13.50;;;11.95;;
35257;SDS011;21385;50.878;8.050;2022-07-23T02:12:51;12.63;;;11.30;;
35257;SDS011;21385;50.878;8.050;2022-07-23T02:15:16;13.73;;;11.13;;
35257;SDS011;21385;50.878;8.050;2022-07-23T02:17:42;12.43;;;10.82;;
35257;SDS011;21385;50.878;8.050;2022-07-23T02:20:08;10.60;;;9.60;;
35257;SDS011;21385;50.878;8.050;2022-07-23T02:22:35;10.45;;;9.43;;
35257;SDS011;21385;50.878;8.050;2022-07-23T02:25:02;10.15;;;8.95;;
35257;SDS011;21385;50.878;8.050;2022-07-23T02:27:28;12.23;;;10.73;;
35257;SDS011;21385;50.878;8.050;2022-07-23T02:29:54;10.60;;;9.57;;
35257;SDS011;21385;50.878;8.050;2022-07-23T02:32:19;11.55;;;10.35;;
35257;SDS011;21385;50.878;8.050;2022-07-23T02:34:46;13.02;;;10.50;;
35257;SDS011;21385;50.878;8.050;2022-07-23T02:37:12;13.45;;;10.55;;
35257;SDS011;21385;50.878;8.050;2022-07-23T02:39:38;12.00;;;9.80;;
35257;SDS011;21385;50.878;8.050;2022-07-23T02:42:04;9.40;;;8.55;;
35257;SDS011;21385;50.878;8.050;2022-07-23T02:44:29;11.63;;;9.60;;
35257;SDS011;21385;50.878;8.050;2022-07-23T02:46:55;13.07;;;8.55;;
35257;SDS011;21385;50.878;8.050;2022-07-23T02:49:22;10.45;;;8.55;;
35257;SDS011;21385;50.878;8.050;2022-07-23T02:51:47;8.77;;;7.88;;
35257;SDS011;21385;50.878;8.050;2022-07-23T02:54:13;8.95;;;8.07;;
35257;SDS011;21385;50.878;8.050;2022-07-23T02:56:38;9.27;;;7.63;;
35257;SDS011;21385;50.878;8.050;2022-07-23T02:59:04;10.73;;;7.55;;
35257;SDS011;21385;50.878;8.050;2022-07-23T03:01:30;9.90;;;7.70;;
35257;SDS011;21385;50.878;8.050;2022-07-23T03:03:55;7.88;;;7.13;;
35257;SDS011;21385;50.878;8.050;2022-07-23T03:06:21;8.13;;;7.38;;
35257;SDS011;21385;50.878;8.050;2022-07-23T03:08:47;8.98;;;7.45;;
35257;SDS011;21385;50.878;8.050;2022-07-23T03:11:12;10.52;;;7.22;;
35257;SDS011;21385;50.878;8.050;2022-07-23T03:13:38;7.25;;;6.45;;
35257;SDS011;21385;50.878;8.050;2022-07-23T03:16:05;8.32;;;7.53;;
35257;SDS011;21385;50.878;8.050;2022-07-23T03:18:31;8.02;;;7.25;;
35257;SDS011;21385;50.878;8.050;2022-07-23T03:20:57;7.93;;;6.63;;
35257;SDS011;21385;50.878;8.050;2022-07-23T03:23:23;10.07;;;7.78;;
35257;SDS011;21385;50.878;8.050;2022-07-23T03:25:48;12.60;;;7.40;;
35257;SDS011;21385;50.878;8.050;2022-07-23T03:28:15;8.50;;;6.72;;
35257;SDS011;21385;50.878;8.050;2022-07-23T03:30:50;7.90;;;7.05;;
35257;SDS011;21385;50.878;8.050;2022-07-23T03:33:16;7.80;;;7.10;;
35257;SDS011;21385;50.878;8.050;2022-07-23T03:35:43;8.75;;;7.88;;
35257;SDS011;21385;50.878;8.050;2022-07-23T03:38:09;10.00;;;6.90;;
35257;SDS011;21385;50.878;8.050;2022-07-23T03:40:35;7.65;;;6.78;;
35257;SDS011;21385;50.878;8.050;2022-07-23T03:43:01;8.90;;;7.18;;
35257;SDS011;21385;50.878;8.050;2022-07-23T03:45:26;7.50;;;6.63;;
35257;SDS011;21385;50.878;8.050;2022-07-23T03:47:52;7.30;;;6.60;;
35257;SDS011;21385;50.878;8.050;2022-07-23T03:50:18;7.05;;;6.40;;
35257;SDS011;21385;50.878;8.050;2022-07-23T03:52:43;6.30;;;5.80;;
35257;SDS011;21385;50.878;8.050;2022-07-23T03:55:09;7.93;;;5.80;;
35257;SDS011;21385;50.878;8.050;2022-07-23T03:57:35;7.70;;;6.90;;
35257;SDS011;21385;50.878;8.050;2022-07-23T04:00:01;7.80;;;7.00;;
35257;SDS011;21385;50.878;8.050;2022-07-23T04:02:28;7.28;;;6.53;;
35257;SDS011;21385;50.878;8.050;2022-07-23T04:04:54;10.30;;;6.38;;
35257;SDS011;21385;50.878;8.050;2022-07-23T04:07:19;8.73;;;6.72;;
35257;SDS011;21385;50.878;8.050;2022-07-23T04:09:46;7.60;;;6.35;;
35257;SDS011;21385;50.878;8.050;2022-07-23T04:12:12;7.47;;;6.38;;
35257;SDS011;21385;50.878;8.050;2022-07-23T04:14:37;7.47;;;5.97;;
35257;SDS011;21385;50.878;8.050;2022-07-23T04:17:03;7.30;;;5.97;;
35257;SDS011;21385;50.878;8.050;2022-07-23T04:19:29;8.00;;;6.93;;
35257;SDS011;21385;50.878;8.050;2022-07-23T04:21:55;6.32;;;5.72;;
35257;SDS011;21385;50.878;8.050;2022-07-23T04:24:21;6.82;;;6.20;;
35257;SDS011;21385;50.878;8.050;2022-07-23T04:26:47;7.85;;;6.28;;
35257;SDS011;21385;50.878;8.050;2022-07-23T04:29:12;7.07;;;6.38;;
35257;SDS011;21385;50.878;8.050;2022-07-23T04:31:38;7.30;;;6.20;;
35257;SDS011;21385;50.878;8.050;2022-07-23T04:34:04;6.35;;;5.75;;
35257;SDS011;21385;50.878;8.050;2022-07-23T04:36:29;9.93;;;6.90;;
35257;SDS011;21385;50.878;8.050;2022-07-23T04:38:55;8.15;;;6.82;;
35257;SDS011;21385;50.878;8.050;2022-07-23T04:41:21;8.40;;;6.75;;
35257;SDS011;21385;50.878;8.050;2022-07-23T04:43:46;7.68;;;6.25;;
35257;SDS011;21385;50.878;8.050;2022-07-23T04:46:12;6.57;;;6.00;;
35257;SDS011;21385;50.878;8.050;2022-07-23T04:48:38;7.47;;;5.88;;
35257;SDS011;21385;50.878;8.050;2022-07-23T04:51:05;6.82;;;6.07;;
35257;SDS011;21385;50.878;8.050;2022-07-23T04:53:30;7.50;;;6.25;;
35257;SDS011;21385;50.878;8.050;2022-07-23T04:55:56;10.10;;;6.20;;
35257;SDS011;21385;50.878;8.050;2022-07-23T04:58:22;5.93;;;5.43;;
35257;SDS011;21385;50.878;8.050;2022-07-23T05:00:48;6.47;;;5.63;;
35257;SDS011;21385;50.878;8.050;2022-07-23T05:03:14;6.32;;;5.70;;
35257;SDS011;21385;50.878;8.050;2022-07-23T05:05:40;12.55;;;6.97;;
35257;SDS011;21385;50.878;8.050;2022-07-23T05:08:05;6.68;;;6.07;;
35257;SDS011;21385;50.878;8.050;2022-07-23T05:10:31;8.60;;;6.35;;
35257;SDS011;21385;50.878;8.050;2022-07-23T05:12:57;9.32;;;7.13;;
35257;SDS011;21385;50.878;8.050;2022-07-23T05:15:22;7.13;;;5.95;;
35257;SDS011;21385;50.878;8.050;2022-07-23T05:17:48;9.35;;;6.70;;
35257;SDS011;21385;50.878;8.050;2022-07-23T05:20:14;7.03;;;6.35;;
35257;SDS011;21385;50.878;8.050;2022-07-23T05:22:40;9.68;;;6.32;;
35257;SDS011;21385;50.878;8.050;2022-07-23T05:25:06;7.97;;;6.32;;
35257;SDS011;21385;50.878;8.050;2022-07-23T05:27:32;7.03;;;6.13;;
35257;SDS011;21385;50.878;8.050;2022-07-23T05:29:57;6.20;;;5.60;;
35257;SDS011;21385;50.878;8.050;2022-07-23T05:32:23;7.15;;;6.45;;
35257;SDS011;21385;50.878;8.050;2022-07-23T05:34:49;7.30;;;6.30;;
35257;SDS011;21385;50.878;8.050;2022-07-23T05:37:15;7.05;;;6.13;;
35257;SDS011;21385;50.878;8.050;2022-07-23T05:39:41;6.88;;;6.18;;
35257;SDS011;21385;50.878;8.050;2022-07-23T05:42:06;6.85;;;6.25;;
35257;SDS011;21385;50.878;8.050;2022-07-23T05:44:32;7.53;;;6.72;;
35257;SDS011;21385;50.878;8.050;2022-07-23T05:46:58;8.65;;;6.60;;
35257;SDS011;21385;50.878;8.050;2022-07-23T05:49:23;8.35;;;6.95;;
35257;SDS011;21385;50.878;8.050;2022-07-23T05:51:49;9.60;;;7.00;;
35257;SDS011;21385;50.878;8.050;2022-07-23T05:54:14;9.88;;;7.10;;
35257;SDS011;21385;50.878;8.050;2022-07-23T05:56:40;7.28;;;6.57;;
35257;SDS011;21385;50.878;8.050;2022-07-23T05:59:06;7.63;;;6.82;;
35257;SDS011;21385;50.878;8.050;2022-07-23T06:01:31;8.35;;;6.82;;
35257;SDS011;21385;50.878;8.050;2022-07-23T06:03:57;7.57;;;6.88;;
35257;SDS011;21385;50.878;8.050;2022-07-23T06:06:22;6.88;;;6.18;;
35257;SDS011;21385;50.878;8.050;2022-07-23T06:08:48;7.28;;;6.50;;
35257;SDS011;21385;50.878;8.050;2022-07-23T06:11:13;7.68;;;6.65;;
35257;SDS011;21385;50.878;8.050;2022-07-23T06:13:39;8.90;;;6.97;;
35257;SDS011;21385;50.878;8.050;2022-07-23T06:16:05;8.77;;;7.28;;
35257;SDS011;21385;50.878;8.050;2022-07-23T06:18:30;15.77;;;7.72;;
35257;SDS011;21385;50.878;8.050;2022-07-23T06:20:56;7.70;;;6.18;;
35257;SDS011;21385;50.878;8.050;2022-07-23T06:23:22;11.10;;;6.88;;
35257;SDS011;21385;50.878;8.050;2022-07-23T06:25:47;7.45;;;6.07;;
35257;SDS011;21385;50.878;8.050;2022-07-23T06:28:13;6.20;;;5.60;;
35257;SDS011;21385;50.878;8.050;2022-07-23T06:30:38;8.90;;;6.10;;
35257;SDS011;21385;50.878;8.050;2022-07-23T06:33:04;8.10;;;6.22;;
35257;SDS011;21385;50.878;8.050;2022-07-23T06:35:30;14.73;;;7.40;;
35257;SDS011;21385;50.878;8.050;2022-07-23T06:37:55;7.95;;;6.75;;
35257;SDS011;21385;50.878;8.050;2022-07-23T06:40:21;9.23;;;5.72;;
35257;SDS011;21385;50.878;8.050;2022-07-23T06:42:46;5.88;;;5.28;;
35257;SDS011;21385;50.878;8.050;2022-07-23T06:45:12;6.45;;;5.30;;
35257;SDS011;21385;50.878;8.050;2022-07-23T06:47:38;6.43;;;5.72;;
35257;SDS011;21385;50.878;8.050;2022-07-23T06:50:04;6.93;;;5.80;;
35257;SDS011;21385;50.878;8.050;2022-07-23T06:52:30;7.38;;;5.15;;
35257;SDS011;21385;50.878;8.050;2022-07-23T06:54:56;7.10;;;5.40;;
35257;SDS011;21385;50.878;8.050;2022-07-23T06:57:21;7.20;;;6.15;;
35257;SDS011;21385;50.878;8.050;2022-07-23T06:59:48;10.73;;;6.55;;
35257;SDS011;21385;50.878;8.050;2022-07-23T07:02:13;10.25;;;6.38;;
35257;SDS011;21385;50.878;8.050;2022-07-23T07:04:39;8.98;;;6.97;;
35257;SDS011;21385;50.878;8.050;2022-07-23T07:07:04;7.38;;;6.57;;
35257;SDS011;21385;50.878;8.050;2022-07-23T07:09:30;8.38;;;6.25;;
35257;SDS011;21385;50.878;8.050;2022-07-23T07:11:55;6.53;;;5.63;;
35257;SDS011;21385;50.878;8.050;2022-07-23T07:14:21;7.78;;;6.95;;
35257;SDS011;21385;50.878;8.050;2022-07-23T07:16:47;7.70;;;6.85;;
35257;SDS011;21385;50.878;8.050;2022-07-23T07:19:13;8.95;;;6.72;;
35257;SDS011;21385;50.878;8.050;2022-07-23T07:21:38;15.90;;;7.20;;
35257;SDS011;21385;50.878;8.050;2022-07-23T07:24:04;10.25;;;7.18;;
35257;SDS011;21385;50.878;8.050;2022-07-23T07:26:31;8.32;;;6.55;;
35257;SDS011;21385;50.878;8.050;2022-07-23T07:28:57;7.85;;;6.75;;
35257;SDS011;21385;50.878;8.050;2022-07-23T07:31:22;8.10;;;6.38;;
35257;SDS011;21385;50.878;8.050;2022-07-23T07:33:48;6.38;;;5.72;;
35257;SDS011;21385;50.878;8.050;2022-07-23T07:36:14;6.63;;;6.03;;
35257;SDS011;21385;50.878;8.050;2022-07-23T07:38:39;8.18;;;6.13;;
35257;SDS011;21385;50.878;8.050;2022-07-23T07:41:05;6.55;;;5.82;;
35257;SDS011;21385;50.878;8.050;2022-07-23T07:43:32;6.50;;;5.00;;
35257;SDS011;21385;50.878;8.050;2022-07-23T07:45:57;6.22;;;5.05;;
35257;SDS011;21385;50.878;8.050;2022-07-23T07:48:24;6.93;;;5.70;;
35257;SDS011;21385;50.878;8.050;2022-07-23T07:50:49;6.43;;;5.80;;
35257;SDS011;21385;50.878;8.050;2022-07-23T07:53:15;5.38;;;4.85;;
35257;SDS011;21385;50.878;8.050;2022-07-23T07:55:40;6.05;;;5.28;;
35257;SDS011;21385;50.878;8.050;2022-07-23T07:58:06;5.80;;;4.47;;
35257;SDS011;21385;50.878;8.050;2022-07-23T08:00:31;6.97;;;3.90;;
35257;SDS011;21385;50.878;8.050;2022-07-23T08:02:57;5.57;;;4.55;;
35257;SDS011;21385;50.878;8.050;2022-07-23T08:05:24;5.05;;;4.40;;
35257;SDS011;21385;50.878;8.050;2022-07-23T08:07:51;4.80;;;3.95;;
35257;SDS011;21385;50.878;8.050;2022-07-23T08:10:16;4.15;;;3.58;;
35257;SDS011;21385;50.878;8.050;2022-07-23T08:12:43;4.57;;;3.30;;
35257;SDS011;21385;50.878;8.050;2022-07-23T08:15:11;4.53;;;3.17;;
35257;SDS011;21385;50.878;8.050;2022-07-23T08:17:43;4.35;;;2.80;;
35257;SDS011;21385;50.878;8.050;2022-07-23T08:20:10;3.90;;;2.70;;
35257;SDS011;21385;50.878;8.050;2022-07-23T08:25:11;5.13;;;3.00;;
35257;SDS011;21385;50.878;8.050;2022-07-23T08:27:37;3.35;;;2.65;;
35257;SDS011;21385;50.878;8.050;2022-07-23T08:30:03;4.25;;;2.85;;
35257;SDS011;21385;50.878;8.050;2022-07-23T08:32:29;4.43;;;2.58;;
35257;SDS011;21385;50.878;8.050;2022-07-23T08:34:54;6.20;;;2.90;;
35257;SDS011;21385;50.878;8.050;2022-07-23T08:37:20;5.55;;;2.83;;
35257;SDS011;21385;50.878;8.050;2022-07-23T08:39:46;3.40;;;1.90;;
35257;SDS011;21385;50.878;8.050;2022-07-23T08:42:12;2.40;;;2.20;;
35257;SDS011;21385;50.878;8.050;2022-07-23T08:44:39;3.20;;;2.28;;
35257;SDS011;21385;50.878;8.050;2022-07-23T08:47:09;4.68;;;2.20;;
35257;SDS011;21385;50.878;8.050;2022-07-23T08:49:40;2.28;;;1.65;;
35257;SDS011;21385;50.878;8.050;2022-07-23T08:52:06;3.25;;;1.98;;
35257;SDS011;21385;50.878;8.050;2022-07-23T08:54:32;1.70;;;1.60;;
35257;SDS011;21385;50.878;8.050;2022-07-23T08:56:59;3.63;;;1.83;;
35257;SDS011;21385;50.878;8.050;2022-07-23T08:59:25;2.22;;;1.50;;
35257;SDS011;21385;50.878;8.050;2022-07-23T09:01:51;2.30;;;1.60;;
35257;SDS011;21385;50.878;8.050;2022-07-23T09:04:17;2.10;;;1.90;;
35257;SDS011;21385;50.878;8.050;2022-07-23T09:06:43;1.83;;;1.65;;
35257;SDS011;21385;50.878;8.050;2022-07-23T09:09:19;2.20;;;1.40;;
35257;SDS011;21385;50.878;8.050;2022-07-23T09:11:46;3.85;;;1.45;;
35257;SDS011;21385;50.878;8.050;2022-07-23T09:14:12;1.90;;;1.60;;
35257;SDS011;21385;50.878;8.050;2022-07-23T09:16:38;2.80;;;1.40;;
35257;SDS011;21385;50.878;8.050;2022-07-23T09:19:04;1.88;;;1.70;;
35257;SDS011;21385;50.878;8.050;2022-07-23T09:21:35;1.90;;;1.67;;
35257;SDS011;21385;50.878;8.050;2022-07-23T09:24:03;1.43;;;1.23;;
35257;SDS011;21385;50.878;8.050;2022-07-23T09:31:51;5.28;;;2.17;;
35257;SDS011;21385;50.878;8.050;2022-07-23T09:36:47;2.53;;;1.75;;
35257;SDS011;21385;50.878;8.050;2022-07-23T09:39:15;2.08;;;1.85;;
35257;SDS011;21385;50.878;8.050;2022-07-23T09:41:46;3.53;;;1.80;;
35257;SDS011;21385;50.878;8.050;2022-07-23T09:44:16;1.98;;;1.70;;
35257;SDS011;21385;50.878;8.050;2022-07-23T09:46:45;2.42;;;1.73;;
35257;SDS011;21385;50.878;8.050;2022-07-23T09:49:22;2.92;;;1.50;;
35257;SDS011;21385;50.878;8.050;2022-07-23T09:51:52;1.95;;;1.40;;
35257;SDS011;21385;50.878;8.050;2022-07-23T09:57:05;2.75;;;1.50;;
35257;SDS011;21385;50.878;8.050;2022-07-23T09:59:42;2.47;;;1.92;;
35257;SDS011;21385;50.878;8.050;2022-07-23T10:02:08;1.73;;;1.45;;
35257;SDS011;21385;50.878;8.050;2022-07-23T10:04:36;1.50;;;1.40;;
35257;SDS011;21385;50.878;8.050;2022-07-23T10:07:04;3.25;;;1.70;;
35257;SDS011;21385;50.878;8.050;2022-07-23T10:09:35;2.00;;;1.67;;
35257;SDS011;21385;50.878;8.050;2022-07-23T10:12:09;1.88;;;1.52;;
35257;SDS011;21385;50.878;8.050;2022-07-23T10:14:40;1.95;;;1.55;;
35257;SDS011;21385;50.878;8.050;2022-07-23T10:17:07;1.98;;;1.55;;
35257;SDS011;21385;50.878;8.050;2022-07-23T10:19:33;1.75;;;1.50;;
35257;SDS011;21385;50.878;8.050;2022-07-23T10:22:42;1.90;;;1.40;;
35257;SDS011;21385;50.878;8.050;2022-07-23T10:24:54;2.08;;;1.48;;
35257;SDS011;21385;50.878;8.050;2022-07-23T10:27:43;2.05;;;1.40;;
35257;SDS011;21385;50.878;8.050;2022-07-23T10:36:02;1.75;;;1.40;;
35257;SDS011;21385;50.878;8.050;2022-07-23T10:41:29;4.80;;;1.48;;
35257;SDS011;21385;50.878;8.050;2022-07-23T10:44:06;1.77;;;1.48;;
35257;SDS011;21385;50.878;8.050;2022-07-23T10:50:27;1.70;;;1.60;;
35257;SDS011;21385;50.878;8.050;2022-07-23T10:57:59;1.95;;;1.77;;
35257;SDS011;21385;50.878;8.050;2022-07-23T11:00:27;2.13;;;1.90;;
35257;SDS011;21385;50.878;8.050;2022-07-23T11:02:57;2.97;;;1.65;;
35257;SDS011;21385;50.878;8.050;2022-07-23T11:05:25;2.90;;;1.80;;
35257;SDS011;21385;50.878;8.050;2022-07-23T11:13:37;3.67;;;1.90;;
35257;SDS011;21385;50.878;8.050;2022-07-23T11:36:58;3.72;;;1.63;;
35257;SDS011;21385;50.878;8.050;2022-07-23T11:39:25;1.98;;;1.75;;
35257;SDS011;21385;50.878;8.050;2022-07-23T11:41:52;3.15;;;2.00;;
35257;SDS011;21385;50.878;8.050;2022-07-23T11:44:29;1.80;;;1.70;;
35257;SDS011;21385;50.878;8.050;2022-07-23T11:49:22;2.05;;;1.52;;
35257;SDS011;21385;50.878;8.050;2022-07-23T11:52:01;4.45;;;1.80;;
35257;SDS011;21385;50.878;8.050;2022-07-23T11:54:31;2.72;;;1.73;;
35257;SDS011;21385;50.878;8.050;2022-07-23T11:57:00;2.20;;;1.70;;
35257;SDS011;21385;50.878;8.050;2022-07-23T11:59:29;2.25;;;1.83;;
35257;SDS011;21385;50.878;8.050;2022-07-23T12:02:00;2.30;;;1.98;;
35257;SDS011;21385;50.878;8.050;2022-07-23T12:10:13;2.03;;;1.70;;
35257;SDS011;21385;50.878;8.050;2022-07-23T12:15:07;2.47;;;1.70;;
35257;SDS011;21385;50.878;8.050;2022-07-23T12:17:36;3.58;;;1.75;;
35257;SDS011;21385;50.878;8.050;2022-07-23T12:20:04;2.42;;;1.85;;
35257;SDS011;21385;50.878;8.050;2022-07-23T12:22:33;2.70;;;1.70;;
35257;SDS011;21385;50.878;8.050;2022-07-23T12:25:08;3.00;;;2.08;;
35257;SDS011;21385;50.878;8.050;2022-07-23T12:27:38;2.20;;;1.73;;
35257;SDS011;21385;50.878;8.050;2022-07-23T12:30:20;2.42;;;1.73;;
35257;SDS011;21385;50.878;8.050;2022-07-23T12:32:49;2.50;;;1.85;;
35257;SDS011;21385;50.878;8.050;2022-07-23T12:35:16;4.50;;;1.90;;
35257;SDS011;21385;50.878;8.050;2022-07-23T12:37:43;2.17;;;1.80;;
35257;SDS011;21385;50.878;8.050;2022-07-23T12:42:46;4.25;;;2.22;;
35257;SDS011;21385;50.878;8.050;2022-07-23T12:45:13;3.30;;;2.20;;
35257;SDS011;21385;50.878;8.050;2022-07-23T12:47:59;4.60;;;2.92;;
35257;SDS011;21385;50.878;8.050;2022-07-23T12:55:30;4.00;;;2.47;;
35257;SDS011;21385;50.878;8.050;2022-07-23T12:58:03;4.30;;;2.58;;
35257;SDS011;21385;50.878;8.050;2022-07-23T13:03:28;3.72;;;3.42;;
35257;SDS011;21385;50.878;8.050;2022-07-23T13:05:57;6.38;;;5.63;;
35257;SDS011;21385;50.878;8.050;2022-07-23T13:08:23;5.22;;;4.00;;
35257;SDS011;21385;50.878;8.050;2022-07-23T13:10:49;5.30;;;3.08;;
35257;SDS011;21385;50.878;8.050;2022-07-23T13:13:17;3.10;;;2.80;;
35257;SDS011;21385;50.878;8.050;2022-07-23T13:15:45;3.60;;;2.30;;
35257;SDS011;21385;50.878;8.050;2022-07-23T13:18:11;3.80;;;2.42;;
35257;SDS011;21385;50.878;8.050;2022-07-23T13:20:37;3.28;;;2.20;;
35257;SDS011;21385;50.878;8.050;2022-07-23T13:23:04;2.95;;;2.58;;
35257;SDS011;21385;50.878;8.050;2022-07-23T13:25:31;3.05;;;2.72;;
35257;SDS011;21385;50.878;8.050;2022-07-23T13:27:57;3.30;;;2.30;;
35257;SDS011;21385;50.878;8.050;2022-07-23T13:30:22;4.22;;;2.60;;
35257;SDS011;21385;50.878;8.050;2022-07-23T13:32:48;6.00;;;2.78;;
35257;SDS011;21385;50.878;8.050;2022-07-23T13:35:14;2.70;;;2.50;;
35257;SDS011;21385;50.878;8.050;2022-07-23T13:37:39;3.42;;;2.50;;
35257;SDS011;21385;50.878;8.050;2022-07-23T13:40:05;3.85;;;2.75;;
35257;SDS011;21385;50.878;8.050;2022-07-23T13:42:33;3.38;;;2.67;;
35257;SDS011;21385;50.878;8.050;2022-07-23T13:44:58;4.80;;;2.63;;
35257;SDS011;21385;50.878;8.050;2022-07-23T13:47:24;3.38;;;2.75;;
35257;SDS011;21385;50.878;8.050;2022-07-23T13:49:50;4.57;;;2.47;;
35257;SDS011;21385;50.878;8.050;2022-07-23T13:52:15;5.40;;;2.88;;
35257;SDS011;21385;50.878;8.050;2022-07-23T13:54:41;4.70;;;2.95;;
35257;SDS011;21385;50.878;8.050;2022-07-23T13:57:07;4.35;;;2.30;;
35257;SDS011;21385;50.878;8.050;2022-07-23T13:59:34;2.78;;;2.58;;
35257;SDS011;21385;50.878;8.050;2022-07-23T14:02:00;3.13;;;2.63;;
35257;SDS011;21385;50.878;8.050;2022-07-23T14:04:26;2.47;;;2.30;;
35257;SDS011;21385;50.878;8.050;2022-07-23T14:06:52;4.93;;;2.50;;
35257;SDS011;21385;50.878;8.050;2022-07-23T14:09:18;3.13;;;2.83;;
35257;SDS011;21385;50.878;8.050;2022-07-23T14:11:43;4.18;;;2.58;;
35257;SDS011;21385;50.878;8.050;2022-07-23T14:14:09;4.10;;;2.90;;
35257;SDS011;21385;50.878;8.050;2022-07-23T14:16:34;5.68;;;2.80;;
35257;SDS011;21385;50.878;8.050;2022-07-23T14:19:00;3.97;;;2.70;;
35257;SDS011;21385;50.878;8.050;2022-07-23T14:21:27;3.10;;;2.72;;
35257;SDS011;21385;50.878;8.050;2022-07-23T14:23:52;3.53;;;2.75;;
35257;SDS011;21385;50.878;8.050;2022-07-23T14:26:18;3.80;;;3.15;;
35257;SDS011;21385;50.878;8.050;2022-07-23T14:28:44;3.00;;;2.67;;
35257;SDS011;21385;50.878;8.050;2022-07-23T14:31:10;3.50;;;2.95;;
35257;SDS011;21385;50.878;8.050;2022-07-23T14:33:35;3.65;;;3.35;;
35257;SDS011;21385;50.878;8.050;2022-07-23T14:36:01;3.80;;;3.05;;
35257;SDS011;21385;50.878;8.050;2022-07-23T14:38:27;3.08;;;2.70;;
35257;SDS011;21385;50.878;8.050;2022-07-23T14:40:52;3.47;;;3.13;;
35257;SDS011;21385;50.878;8.050;2022-07-23T14:43:18;3.35;;;3.03;;
35257;SDS011;21385;50.878;8.050;2022-07-23T14:45:44;3.20;;;2.90;;
35257;SDS011;21385;50.878;8.050;2022-07-23T14:48:10;5.47;;;3.42;;
35257;SDS011;21385;50.878;8.050;2022-07-23T14:50:36;3.65;;;3.05;;
35257;SDS011;21385;50.878;8.050;2022-07-23T14:53:01;2.70;;;2.50;;
35257;SDS011;21385;50.878;8.050;2022-07-23T14:55:27;4.22;;;2.80;;
35257;SDS011;21385;50.878;8.050;2022-07-23T14:57:52;3.25;;;2.95;;
35257;SDS011;21385;50.878;8.050;2022-07-23T15:00:18;4.47;;;3.10;;
35257;SDS011;21385;50.878;8.050;2022-07-23T15:02:43;3.42;;;3.13;;
35257;SDS011;21385;50.878;8.050;2022-07-23T15:05:09;5.45;;;3.30;;
35257;SDS011;21385;50.878;8.050;2022-07-23T15:07:35;3.10;;;2.80;;
35257;SDS011;21385;50.878;8.050;2022-07-23T15:10:01;4.50;;;3.03;;
35257;SDS011;21385;50.878;8.050;2022-07-23T15:12:27;4.55;;;3.33;;
35257;SDS011;21385;50.878;8.050;2022-07-23T15:14:53;5.20;;;3.35;;
35257;SDS011;21385;50.878;8.050;2022-07-23T15:17:18;4.13;;;3.25;;
35257;SDS011;21385;50.878;8.050;2022-07-23T15:19:44;4.20;;;3.30;;
35257;SDS011;21385;50.878;8.050;2022-07-23T15:22:09;3.95;;;3.10;;
35257;SDS011;21385;50.878;8.050;2022-07-23T15:24:35;4.57;;;3.30;;
35257;SDS011;21385;50.878;8.050;2022-07-23T15:27:01;3.65;;;2.80;;
35257;SDS011;21385;50.878;8.050;2022-07-23T15:29:27;3.70;;;2.63;;
35257;SDS011;21385;50.878;8.050;2022-07-23T15:31:52;7.95;;;3.13;;
35257;SDS011;21385;50.878;8.050;2022-07-23T15:34:18;3.28;;;2.97;;
35257;SDS011;21385;50.878;8.050;2022-07-23T15:36:43;4.45;;;3.30;;
35257;SDS011;21385;50.878;8.050;2022-07-23T15:39:09;3.20;;;2.90;;
35257;SDS011;21385;50.878;8.050;2022-07-23T15:41:35;3.65;;;3.33;;
35257;SDS011;21385;50.878;8.050;2022-07-23T15:44:00;4.30;;;3.22;;
35257;SDS011;21385;50.878;8.050;2022-07-23T15:46:26;4.45;;;3.22;;
35257;SDS011;21385;50.878;8.050;2022-07-23T15:48:52;3.65;;;3.13;;
35257;SDS011;21385;50.878;8.050;2022-07-23T15:51:18;4.13;;;3.10;;
35257;SDS011;21385;50.878;8.050;2022-07-23T15:53:44;4.00;;;3.42;;
35257;SDS011;21385;50.878;8.050;2022-07-23T15:56:10;3.45;;;3.15;;
35257;SDS011;21385;50.878;8.050;2022-07-23T15:58:36;3.35;;;3.08;;
35257;SDS011;21385;50.878;8.050;2022-07-23T16:01:03;3.30;;;2.90;;